Station Historical Data
Daily Summary for November 13, 2017 Units:  English    Metric   Both
« Previous Day
Next Day »
Daily Weekly Monthly Yearly Custom
  High: Low: Average:
Temperature: 53.0 °F 45.9 °F 49 °F
Dew Point: 47.6 °F 42.5 °F 45.1 °F
Humidity: 92 % 78 % 86 %
Wind Speed: 9.0 mph 0.0 mph 1.3 mph
Wind Gust: 13.0 mph - -
Wind:- - SE
Pressure: 30.28 in 30.20 in -
Precipitation: 0.00 in    
Historical Graphs
 
 
Tabular Data for November 13, 2017
Time Temperature Dew Point Pressure Wind Wind Speed Wind Gust Humidity Rainfall Rate (Hourly) solar
00:02 45.9 °F 42.5 °F 30.24 in Calm   7.0 mph 88 % 0.00 in 0.00 W/m2
00:07 45.9 °F 42.5 °F 30.23 in Calm   7.0 mph 88 % 0.00 in 0.00 W/m2
00:12 45.9 °F 42.5 °F 30.23 in ESE 8.0 mph 9.0 mph 88 % 0.00 in 0.00 W/m2
00:17 45.9 °F 42.5 °F 30.23 in Calm   5.0 mph 88 % 0.00 in 0.00 W/m2
00:22 45.9 °F 42.5 °F 30.24 in ESE 9.0 mph 11.0 mph 88 % 0.00 in 0.00 W/m2
00:27 45.9 °F 42.5 °F 30.24 in ESE 1.0 mph 6.0 mph 88 % 0.00 in 0.00 W/m2
00:32 45.9 °F 42.5 °F 30.23 in ESE 4.0 mph 6.0 mph 88 % 0.00 in 0.00 W/m2
00:37 45.9 °F 42.5 °F 30.24 in Calm   1.0 mph 88 % 0.00 in 0.00 W/m2
00:42 45.9 °F 42.5 °F 30.24 in ESE 2.0 mph 7.0 mph 88 % 0.00 in 0.00 W/m2
00:47 45.9 °F 42.5 °F 30.24 in Calm   7.0 mph 88 % 0.00 in 0.00 W/m2
00:52 45.9 °F 42.5 °F 30.23 in Calm   6.0 mph 88 % 0.00 in 0.00 W/m2
00:57 45.9 °F 42.5 °F 30.23 in Calm   11.0 mph 88 % 0.00 in 0.00 W/m2
01:02 45.9 °F 42.5 °F 30.23 in Calm   6.0 mph 88 % 0.00 in 0.00 W/m2
01:08 45.9 °F 42.5 °F 30.23 in Calm     88 % 0.00 in 0.00 W/m2
01:13 45.9 °F 42.5 °F 30.23 in Calm   1.0 mph 88 % 0.00 in 0.00 W/m2
01:18 46.0 °F 42.7 °F 30.23 in Calm   7.0 mph 88 % 0.00 in 0.00 W/m2
01:23 46.0 °F 42.7 °F 30.24 in Calm   7.0 mph 88 % 0.00 in 0.00 W/m2
01:28 46.1 °F 42.8 °F 30.23 in Calm   7.0 mph 88 % 0.00 in 0.00 W/m2
01:33 46.1 °F 42.8 °F 30.23 in Calm   6.0 mph 88 % 0.00 in 0.00 W/m2
01:38 46.2 °F 42.8 °F 30.23 in Calm   6.0 mph 88 % 0.00 in 0.00 W/m2
01:43 46.2 °F 43.1 °F 30.23 in Calm   8.0 mph 89 % 0.00 in 0.00 W/m2
01:48 46.3 °F 43.0 °F 30.23 in ESE 5.0 mph 8.0 mph 88 % 0.00 in 0.00 W/m2
01:53 46.4 °F 43.0 °F 30.23 in ESE 4.0 mph 8.0 mph 88 % 0.00 in 0.00 W/m2
02:03 46.4 °F 43.3 °F 30.23 in ESE 7.0 mph 8.0 mph 89 % 0.00 in 0.00 W/m2
02:08 46.5 °F 43.4 °F 30.22 in Calm   8.0 mph 89 % 0.00 in 0.00 W/m2
02:13 46.5 °F 43.4 °F 30.23 in ESE 2.0 mph 7.0 mph 89 % 0.00 in 0.00 W/m2
02:18 46.4 °F 43.3 °F 30.22 in ESE 6.0 mph 8.0 mph 89 % 0.00 in 0.00 W/m2
02:23 46.4 °F 43.3 °F 30.22 in Calm   6.0 mph 89 % 0.00 in 0.00 W/m2
02:28 46.4 °F 43.3 °F 30.22 in Calm   7.0 mph 89 % 0.00 in 0.00 W/m2
02:33 46.4 °F 43.3 °F 30.22 in Calm   6.0 mph 89 % 0.00 in 0.00 W/m2
02:38 46.4 °F 43.3 °F 30.22 in Calm   8.0 mph 89 % 0.00 in 0.00 W/m2
02:43 46.4 °F 43.3 °F 30.21 in Calm   9.0 mph 89 % 0.00 in 0.00 W/m2
02:48 46.4 °F 43.3 °F 30.21 in Calm   6.0 mph 89 % 0.00 in 0.00 W/m2
02:53 46.4 °F 43.3 °F 30.21 in Calm   8.0 mph 89 % 0.00 in 0.00 W/m2
02:58 46.4 °F 43.3 °F 30.21 in ESE 1.0 mph 7.0 mph 89 % 0.00 in 0.00 W/m2
03:03 46.4 °F 43.3 °F 30.20 in Calm   1.0 mph 89 % 0.00 in 0.00 W/m2
03:08 46.4 °F 43.3 °F 30.21 in Calm   5.0 mph 89 % 0.00 in 0.00 W/m2
03:13 46.4 °F 43.3 °F 30.20 in Calm     89 % 0.00 in 0.00 W/m2
03:18 46.4 °F 43.3 °F 30.20 in Calm     89 % 0.00 in 0.00 W/m2
03:23 46.5 °F 43.4 °F 30.20 in Calm     89 % 0.00 in 0.00 W/m2
03:28 46.5 °F 43.4 °F 30.20 in ESE 4.0 mph 6.0 mph 89 % 0.00 in 0.00 W/m2
03:33 46.5 °F 43.4 °F 30.20 in ESE 4.0 mph 6.0 mph 89 % 0.00 in 0.00 W/m2
03:38 46.6 °F 43.5 °F 30.20 in Calm   2.0 mph 89 % 0.00 in 0.00 W/m2
03:43 46.6 °F 43.5 °F 30.20 in Calm   1.0 mph 89 % 0.00 in 0.00 W/m2
03:48 46.6 °F 43.5 °F 30.20 in ESE 4.0 mph 7.0 mph 89 % 0.00 in 0.00 W/m2
03:53 46.6 °F 43.5 °F 30.20 in ESE 5.0 mph 7.0 mph 89 % 0.00 in 0.00 W/m2
03:58 46.6 °F 43.5 °F 30.20 in Calm   6.0 mph 89 % 0.00 in 0.00 W/m2
04:03 46.7 °F 43.6 °F 30.20 in ESE 8.0 mph 8.0 mph 89 % 0.00 in 0.00 W/m2
04:08 46.7 °F 43.6 °F 30.21 in ESE 1.0 mph 8.0 mph 89 % 0.00 in 0.00 W/m2
04:13 46.7 °F 43.6 °F 30.20 in ESE 5.0 mph 9.0 mph 89 % 0.00 in 0.00 W/m2
04:18 46.7 °F 43.6 °F 30.20 in Calm   7.0 mph 89 % 0.00 in 0.00 W/m2
04:23 46.7 °F 43.6 °F 30.21 in ESE 4.0 mph 8.0 mph 89 % 0.00 in 0.00 W/m2
04:28 46.7 °F 43.6 °F 30.21 in ESE 7.0 mph 9.0 mph 89 % 0.00 in 0.00 W/m2
04:33 46.7 °F 43.6 °F 30.21 in Calm   8.0 mph 89 % 0.00 in 0.00 W/m2
04:38 46.6 °F 43.5 °F 30.20 in ESE 6.0 mph 11.0 mph 89 % 0.00 in 0.00 W/m2
04:43 46.6 °F 43.5 °F 30.20 in ESE 5.0 mph 7.0 mph 89 % 0.00 in 0.00 W/m2
04:49 46.5 °F 43.4 °F 30.20 in Calm   9.0 mph 89 % 0.00 in 0.00 W/m2
04:54 46.5 °F 43.4 °F 30.20 in ESE 7.0 mph 9.0 mph 89 % 0.00 in 0.00 W/m2
04:59 46.5 °F 43.4 °F 30.20 in Calm   12.0 mph 89 % 0.00 in 0.00 W/m2
05:04 46.5 °F 43.4 °F 30.20 in ESE 6.0 mph 8.0 mph 89 % 0.00 in 0.00 W/m2
05:09 46.5 °F 43.4 °F 30.21 in Calm   8.0 mph 89 % 0.00 in 0.00 W/m2
05:14 46.5 °F 43.4 °F 30.21 in Calm   1.0 mph 89 % 0.00 in 0.00 W/m2
05:19 46.5 °F 43.4 °F 30.21 in Calm   7.0 mph 89 % 0.00 in 0.00 W/m2
05:24 46.5 °F 43.4 °F 30.21 in SE 2.0 mph 7.0 mph 89 % 0.00 in 0.00 W/m2
05:29 46.5 °F 43.1 °F 30.21 in Calm   8.0 mph 88 % 0.00 in 0.00 W/m2
05:34 46.5 °F 43.1 °F 30.21 in Calm     88 % 0.00 in 0.00 W/m2
05:39 46.5 °F 43.1 °F 30.22 in Calm   8.0 mph 88 % 0.00 in 0.00 W/m2
05:44 46.5 °F 43.1 °F 30.22 in SE 6.0 mph 9.0 mph 88 % 0.00 in 0.00 W/m2
05:49 46.5 °F 43.1 °F 30.22 in Calm   7.0 mph 88 % 0.00 in 0.00 W/m2
05:54 46.5 °F 43.4 °F 30.22 in Calm     89 % 0.00 in 0.00 W/m2
05:59 46.5 °F 43.1 °F 30.22 in Calm     88 % 0.00 in 0.00 W/m2
06:04 46.4 °F 43.3 °F 30.22 in Calm     89 % 0.00 in 0.00 W/m2
06:09 46.5 °F 43.4 °F 30.23 in Calm     89 % 0.00 in 0.00 W/m2
06:14 46.4 °F 43.3 °F 30.23 in Calm     89 % 0.00 in 0.00 W/m2
06:19 46.4 °F 43.3 °F 30.23 in Calm     89 % 0.00 in 0.00 W/m2
06:24 46.4 °F 43.3 °F 30.23 in Calm     89 % 0.00 in 0.00 W/m2
06:29 46.3 °F 43.2 °F 30.23 in Calm     89 % 0.00 in 0.00 W/m2
06:34 46.3 °F 43.2 °F 30.23 in Calm     89 % 0.00 in 0.00 W/m2
06:39 46.2 °F 43.1 °F 30.23 in Calm     89 % 0.00 in 0.00 W/m2
06:44 46.2 °F 43.1 °F 30.24 in Calm     89 % 0.00 in 0.00 W/m2
06:49 46.2 °F 43.1 °F 30.24 in Calm     89 % 0.00 in 7.00 W/m2
06:54 46.2 °F 43.1 °F 30.23 in Calm     89 % 0.00 in 9.00 W/m2
06:59 46.2 °F 43.1 °F 30.24 in Calm   1.0 mph 89 % 0.00 in 11.00 W/m2
07:04 46.2 °F 43.1 °F 30.24 in Calm     89 % 0.00 in 12.00 W/m2
07:09 46.3 °F 43.2 °F 30.24 in Calm     89 % 0.00 in 14.00 W/m2
07:14 46.3 °F 43.2 °F 30.24 in Calm   7.0 mph 89 % 0.00 in 21.00 W/m2
07:20 46.3 °F 43.2 °F 30.24 in SE 2.0 mph 7.0 mph 89 % 0.00 in 26.00 W/m2
07:25 46.3 °F 43.2 °F 30.25 in SE 7.0 mph 7.0 mph 89 % 0.00 in 37.00 W/m2
07:30 46.4 °F 43.3 °F 30.25 in Calm   7.0 mph 89 % 0.00 in 44.00 W/m2
07:35 46.4 °F 43.3 °F 30.25 in SE 4.0 mph 7.0 mph 89 % 0.00 in 39.00 W/m2
07:40 46.5 °F 43.4 °F 30.25 in SE 5.0 mph 8.0 mph 89 % 0.00 in 42.00 W/m2
07:45 46.5 °F 43.4 °F 30.25 in Calm   8.0 mph 89 % 0.00 in 51.00 W/m2
07:50 46.6 °F 43.5 °F 30.25 in Calm   6.0 mph 89 % 0.00 in 60.00 W/m2
07:55 46.7 °F 43.6 °F 30.25 in SE 4.0 mph 9.0 mph 89 % 0.00 in 69.00 W/m2
08:00 46.8 °F 43.7 °F 30.25 in SE 2.0 mph 8.0 mph 89 % 0.00 in 70.00 W/m2
08:05 46.9 °F 43.8 °F 30.25 in Calm   7.0 mph 89 % 0.00 in 65.00 W/m2
08:10 47.1 °F 44.0 °F 30.25 in SE 7.0 mph 9.0 mph 89 % 0.00 in 74.00 W/m2
08:15 47.2 °F 44.1 °F 30.25 in SE 7.0 mph 9.0 mph 89 % 0.00 in 79.00 W/m2
08:20 47.2 °F 44.1 °F 30.25 in SE 2.0 mph 9.0 mph 89 % 0.00 in 81.00 W/m2
08:25 47.4 °F 44.0 °F 30.25 in SE 7.0 mph 11.0 mph 88 % 0.00 in 95.00 W/m2
08:28 47.4 °F 44.0 °F 30.25 in SE 5.0 mph 9.0 mph 88 % 0.00 in 105.00 W/m2
08:33 47.5 °F 44.1 °F 30.25 in SE 6.0 mph 8.0 mph 88 % 0.00 in 113.00 W/m2
08:38 47.7 °F 44.3 °F 30.25 in Calm   9.0 mph 88 % 0.00 in 127.00 W/m2
08:43 47.8 °F 44.4 °F 30.25 in Calm   6.0 mph 88 % 0.00 in 132.00 W/m2
08:48 48.0 °F 44.6 °F 30.26 in Calm   9.0 mph 88 % 0.00 in 130.00 W/m2
08:53 48.1 °F 44.4 °F 30.26 in SE 5.0 mph 8.0 mph 87 % 0.00 in 139.00 W/m2
08:59 48.3 °F 44.6 °F 30.26 in Calm   8.0 mph 87 % 0.00 in 134.00 W/m2
09:04 48.4 °F 44.7 °F 30.26 in Calm   9.0 mph 87 % 0.00 in 144.00 W/m2
09:14 48.6 °F 44.9 °F 30.26 in Calm     87 % 0.00 in 149.00 W/m2
09:19 48.8 °F 45.1 °F 30.26 in Calm   5.0 mph 87 % 0.00 in 155.00 W/m2
09:24 48.9 °F 45.2 °F 30.27 in SE 5.0 mph 9.0 mph 87 % 0.00 in 144.00 W/m2
09:29 49.0 °F 45.0 °F 30.27 in Calm   6.0 mph 86 % 0.00 in 144.00 W/m2
09:34 49.1 °F 45.1 °F 30.28 in SE 2.0 mph 7.0 mph 86 % 0.00 in 153.00 W/m2
09:39 49.2 °F 45.2 °F 30.27 in SE 1.0 mph 7.0 mph 86 % 0.00 in 167.00 W/m2
09:44 49.4 °F 45.4 °F 30.27 in Calm   8.0 mph 86 % 0.00 in 183.00 W/m2
09:49 49.6 °F 45.6 °F 30.27 in SE 7.0 mph 8.0 mph 86 % 0.00 in 188.00 W/m2
09:54 49.7 °F 45.4 °F 30.27 in Calm   8.0 mph 85 % 0.00 in 204.00 W/m2
09:59 49.8 °F 45.5 °F 30.27 in SE 4.0 mph 9.0 mph 85 % 0.00 in 218.00 W/m2
10:04 50.0 °F 45.7 °F 30.27 in SE 8.0 mph 8.0 mph 85 % 0.00 in 250.00 W/m2
10:09 50.2 °F 45.9 °F 30.27 in Calm   9.0 mph 85 % 0.00 in 253.00 W/m2
10:14 50.3 °F 46.0 °F 30.27 in Calm   7.0 mph 85 % 0.00 in 265.00 W/m2
10:19 50.5 °F 46.2 °F 30.27 in SE 6.0 mph 11.0 mph 85 % 0.00 in 283.00 W/m2
10:24 50.6 °F 46.0 °F 30.27 in Calm   9.0 mph 84 % 0.00 in 264.00 W/m2
10:29 50.8 °F 46.2 °F 30.28 in Calm   9.0 mph 84 % 0.00 in 229.00 W/m2
10:35 50.9 °F 45.9 °F 30.28 in SSE 7.0 mph 9.0 mph 83 % 0.00 in 221.00 W/m2
10:39 51.0 °F 46.0 °F 30.28 in Calm   9.0 mph 83 % 0.00 in 246.00 W/m2
10:45 51.2 °F 46.2 °F 30.27 in Calm   10.0 mph 83 % 0.00 in 241.00 W/m2
10:50 51.3 °F 46.3 °F 30.27 in Calm   7.0 mph 83 % 0.00 in 258.00 W/m2
10:55 51.4 °F 46.1 °F 30.27 in SSE 7.0 mph 10.0 mph 82 % 0.00 in 292.00 W/m2
11:00 51.5 °F 45.9 °F 30.27 in Calm     81 % 0.00 in 260.00 W/m2
11:05 51.7 °F 46.1 °F 30.27 in Calm     81 % 0.00 in 271.00 W/m2
11:10 51.8 °F 46.2 °F 30.26 in Calm   8.0 mph 81 % 0.00 in 279.00 W/m2
11:15 51.9 °F 46.3 °F 30.26 in Calm     81 % 0.00 in 267.00 W/m2
11:20 52.0 °F 46.4 °F 30.27 in Calm   7.0 mph 81 % 0.00 in 227.00 W/m2
11:25 52.1 °F 46.1 °F 30.26 in Calm   1.0 mph 80 % 0.00 in 239.00 W/m2
11:30 52.2 °F 45.9 °F 30.26 in Calm     79 % 0.00 in 239.00 W/m2
11:35 52.3 °F 46.0 °F 30.26 in Calm     79 % 0.00 in 218.00 W/m2
11:40 52.3 °F 46.3 °F 30.26 in SSE 6.0 mph 9.0 mph 80 % 0.00 in 207.00 W/m2
11:45 52.4 °F 46.1 °F 30.26 in South 5.0 mph 10.0 mph 79 % 0.00 in 221.00 W/m2
11:50 52.5 °F 46.2 °F 30.25 in Calm   10.0 mph 79 % 0.00 in 225.00 W/m2
11:55 52.6 °F 46.6 °F 30.25 in SSE 5.0 mph 7.0 mph 80 % 0.00 in 265.00 W/m2
12:00 52.7 °F 46.4 °F 30.25 in Calm   8.0 mph 79 % 0.00 in 206.00 W/m2
12:05 52.7 °F 46.4 °F 30.25 in SSE 4.0 mph 4.0 mph 79 % 0.00 in 234.00 W/m2
12:10 52.8 °F 46.5 °F 30.25 in Calm   9.0 mph 79 % 0.00 in 197.00 W/m2
12:15 52.8 °F 46.5 °F 30.25 in Calm     79 % 0.00 in 188.00 W/m2
12:20 52.9 °F 46.6 °F 30.25 in SSE 2.0 mph 7.0 mph 79 % 0.00 in 181.00 W/m2
12:25 52.9 °F 46.2 °F 30.25 in Calm   8.0 mph 78 % 0.00 in 163.00 W/m2
12:30 53.0 °F 46.3 °F 30.24 in Calm   8.0 mph 78 % 0.00 in 149.00 W/m2
12:35 53.0 °F 46.3 °F 30.24 in Calm     78 % 0.00 in 155.00 W/m2
12:40 53.0 °F 46.3 °F 30.24 in SSE 8.0 mph 9.0 mph 78 % 0.00 in 162.00 W/m2
12:45 53.0 °F 46.3 °F 30.24 in Calm   8.0 mph 78 % 0.00 in 123.00 W/m2
12:50 53.0 °F 46.3 °F 30.24 in Calm     78 % 0.00 in 100.00 W/m2
12:55 53.0 °F 46.7 °F 30.24 in Calm   9.0 mph 79 % 0.00 in 107.00 W/m2
13:00 53.0 °F 46.7 °F 30.24 in SSE 4.0 mph 8.0 mph 79 % 0.00 in 130.00 W/m2
13:05 52.9 °F 46.6 °F 30.23 in Calm   5.0 mph 79 % 0.00 in 162.00 W/m2
13:10 52.9 °F 46.6 °F 30.23 in Calm   7.0 mph 79 % 0.00 in 160.00 W/m2
13:15 52.9 °F 46.6 °F 30.23 in Calm   8.0 mph 79 % 0.00 in 146.00 W/m2
13:20 52.9 °F 46.6 °F 30.23 in Calm   5.0 mph 79 % 0.00 in 118.00 W/m2
13:21 52.9 °F 46.6 °F 30.23 in Calm   7.0 mph 79 % 0.00 in 114.00 W/m2
13:31 52.9 °F 46.6 °F 30.22 in Calm     79 % 0.00 in 120.00 W/m2
13:36 52.9 °F 46.2 °F 30.22 in Calm     78 % 0.00 in 102.00 W/m2
13:41 52.9 °F 46.2 °F 30.22 in Calm   1.0 mph 78 % 0.00 in 93.00 W/m2
13:46 52.9 °F 46.6 °F 30.22 in Calm     79 % 0.00 in 93.00 W/m2
13:51 52.9 °F 46.6 °F 30.22 in Calm     79 % 0.00 in 83.00 W/m2
13:56 52.8 °F 46.5 °F 30.22 in Calm     79 % 0.00 in 84.00 W/m2
14:01 52.8 °F 46.5 °F 30.22 in Calm     79 % 0.00 in 95.00 W/m2
14:06 52.8 °F 46.5 °F 30.22 in Calm     79 % 0.00 in 104.00 W/m2
14:11 52.8 °F 46.8 °F 30.21 in Calm     80 % 0.00 in 113.00 W/m2
14:17 52.8 °F 46.5 °F 30.22 in Calm     79 % 0.00 in 107.00 W/m2
14:22 52.8 °F 47.1 °F 30.22 in Calm     81 % 0.00 in 79.00 W/m2
14:27 52.7 °F 47.0 °F 30.22 in Calm     81 % 0.00 in 62.00 W/m2
14:32 52.7 °F 46.7 °F 30.22 in Calm     80 % 0.00 in 54.00 W/m2
14:37 52.6 °F 46.9 °F 30.22 in Calm     81 % 0.00 in 47.00 W/m2
14:42 52.6 °F 46.9 °F 30.22 in Calm     81 % 0.00 in 40.00 W/m2
14:47 52.6 °F 46.9 °F 30.22 in Calm     81 % 0.00 in 37.00 W/m2
14:52 52.6 °F 46.9 °F 30.22 in Calm     81 % 0.00 in 49.00 W/m2
14:57 52.5 °F 47.2 °F 30.22 in Calm     82 % 0.00 in 47.00 W/m2
15:02 52.5 °F 47.2 °F 30.22 in Calm     82 % 0.00 in 37.00 W/m2
15:07 52.4 °F 47.4 °F 30.22 in Calm     83 % 0.00 in 32.00 W/m2
15:12 52.3 °F 47.3 °F 30.22 in Calm     83 % 0.00 in 30.00 W/m2
15:22 52.0 °F 47.0 °F 30.23 in Calm     83 % 0.00 in 16.00 W/m2
15:27 52.0 °F 47.3 °F 30.23 in Calm     84 % 0.00 in 16.00 W/m2
15:32 51.9 °F 47.5 °F 30.23 in Calm     85 % 0.00 in 18.00 W/m2
15:37 51.8 °F 47.4 °F 30.22 in Calm     85 % 0.00 in 18.00 W/m2
15:42 51.7 °F 47.3 °F 30.23 in Calm     85 % 0.06 in 14.00 W/m2
15:47 51.6 °F 47.6 °F 30.23 in Calm     86 % 0.06 in 12.00 W/m2
15:52 51.4 °F 47.4 °F 30.23 in Calm     86 % 0.09 in 11.00 W/m2
15:57 51.2 °F 47.5 °F 30.23 in Calm     87 % 0.10 in 9.00 W/m2
16:02 50.9 °F 47.2 °F 30.23 in Calm     87 % 0.08 in 9.00 W/m2
16:07 50.6 °F 46.9 °F 30.23 in Calm     87 % 0.08 in 9.00 W/m2
16:12 50.5 °F 47.1 °F 30.23 in Calm     88 % 0.06 in 9.00 W/m2
16:17 50.3 °F 46.9 °F 30.23 in Calm     88 % 0.06 in 9.00 W/m2
16:22 50.2 °F 46.8 °F 30.23 in Calm     88 % 0.06 in 7.00 W/m2
16:27 50.1 °F 46.7 °F 30.23 in Calm     88 % 0.04 in 5.00 W/m2
16:32 50.1 °F 46.7 °F 30.22 in Calm     88 % 0.04 in 5.00 W/m2
16:37 50.0 °F 46.6 °F 30.22 in Calm     88 % 0.04 in 0.00 W/m2
16:42 49.9 °F 46.5 °F 30.22 in SSE 2.0 mph 6.0 mph 88 % 0.05 in 0.00 W/m2
16:47 49.9 °F 46.5 °F 30.22 in SSE 4.0 mph 7.0 mph 88 % 0.05 in 0.00 W/m2
16:52 49.8 °F 46.4 °F 30.23 in SSE 2.0 mph 5.0 mph 88 % 0.05 in 0.00 W/m2
16:57 49.7 °F 46.3 °F 30.22 in Calm   7.0 mph 88 % 0.05 in 0.00 W/m2
17:02 49.7 °F 46.3 °F 30.22 in SSE 4.0 mph 8.0 mph 88 % 0.05 in 0.00 W/m2
17:07 49.7 °F 46.3 °F 30.22 in Calm   5.0 mph 88 % 0.04 in 0.00 W/m2
17:12 49.6 °F 46.2 °F 30.22 in SE 4.0 mph 8.0 mph 88 % 0.04 in 0.00 W/m2
17:17 49.6 °F 46.2 °F 30.22 in Calm   7.0 mph 88 % 0.04 in 0.00 W/m2
17:22 49.6 °F 46.2 °F 30.23 in Calm   7.0 mph 88 % 0.05 in 0.00 W/m2
17:32 49.5 °F 46.1 °F 30.22 in SE 1.0 mph 9.0 mph 88 % 0.04 in 0.00 W/m2
17:37 49.4 °F 46.0 °F 30.22 in SE 6.0 mph 6.0 mph 88 % 0.04 in 0.00 W/m2
17:42 49.4 °F 46.0 °F 30.22 in Calm   6.0 mph 88 % 0.04 in 0.00 W/m2
17:47 49.4 °F 46.0 °F 30.22 in SE 7.0 mph 10.0 mph 88 % 0.04 in 0.00 W/m2
17:52 49.4 °F 46.0 °F 30.22 in SE 1.0 mph 1.0 mph 88 % 0.04 in 0.00 W/m2
17:57 49.3 °F 45.9 °F 30.22 in Calm   9.0 mph 88 % 0.04 in 0.00 W/m2
18:03 49.2 °F 45.8 °F 30.22 in SE 7.0 mph 7.0 mph 88 % 0.07 in 0.00 W/m2
18:08 49.3 °F 45.9 °F 30.23 in Calm   10.0 mph 88 % 0.07 in 0.00 W/m2
18:13 49.2 °F 45.8 °F 30.22 in Calm   8.0 mph 88 % 0.07 in 0.00 W/m2
18:18 49.2 °F 45.8 °F 30.23 in Calm   4.0 mph 88 % 0.07 in 0.00 W/m2
18:23 49.2 °F 45.8 °F 30.23 in Calm   7.0 mph 88 % 0.10 in 0.00 W/m2
18:33 49.1 °F 45.7 °F 30.23 in Calm   2.0 mph 88 % 0.08 in 0.00 W/m2
18:38 49.1 °F 45.7 °F 30.23 in Calm   7.0 mph 88 % 0.23 in 0.00 W/m2
18:43 49.1 °F 45.7 °F 30.23 in Calm   8.0 mph 88 % 0.23 in 0.00 W/m2
18:48 49.1 °F 45.7 °F 30.23 in Calm   5.0 mph 88 % 0.13 in 0.00 W/m2
18:58 49.1 °F 45.7 °F 30.23 in SE 6.0 mph 12.0 mph 88 % 0.12 in 0.00 W/m2
19:03 49.1 °F 45.7 °F 30.23 in Calm   9.0 mph 88 % 0.17 in 0.00 W/m2
19:08 49.1 °F 45.7 °F 30.23 in Calm   7.0 mph 88 % 0.15 in 0.00 W/m2
19:14 49.1 °F 45.7 °F 30.23 in Calm   11.0 mph 88 % 0.14 in 0.00 W/m2
19:19 49.1 °F 45.7 °F 30.23 in Calm   6.0 mph 88 % 0.08 in 0.00 W/m2
19:22 49.1 °F 45.7 °F 30.23 in Calm     88 % 0.07 in 0.00 W/m2
19:25 49.1 °F 45.7 °F 30.23 in Calm   9.0 mph 88 % 0.07 in 0.00 W/m2
19:30 49.1 °F 45.7 °F 30.23 in Calm     88 % 0.06 in 0.00 W/m2
19:35 49.1 °F 45.7 °F 30.23 in Calm     88 % 0.04 in 0.00 W/m2
19:40 49.2 °F 45.8 °F 30.23 in Calm     88 % 0.04 in 0.00 W/m2
19:45 49.1 °F 45.7 °F 30.23 in SE 7.0 mph 7.0 mph 88 % 0.04 in 0.00 W/m2
19:50 49.1 °F 45.7 °F 30.23 in Calm     88 % 0.04 in 0.00 W/m2
19:55 49.1 °F 45.7 °F 30.23 in Calm     88 % 0.00 in 0.00 W/m2
20:00 49.2 °F 45.8 °F 30.23 in SSE 7.0 mph 7.0 mph 88 % 0.00 in 0.00 W/m2
20:05 49.2 °F 45.8 °F 30.23 in SSE 2.0 mph 6.0 mph 88 % 0.00 in 0.00 W/m2
20:11 49.2 °F 45.8 °F 30.23 in Calm     88 % 0.00 in 0.00 W/m2
20:16 49.2 °F 45.8 °F 30.23 in Calm     88 % 0.00 in 0.00 W/m2
20:21 49.2 °F 45.8 °F 30.23 in SSE 2.0 mph 6.0 mph 88 % 0.00 in 0.00 W/m2
20:26 49.2 °F 45.8 °F 30.23 in SSE 2.0 mph 5.0 mph 88 % 0.00 in 0.00 W/m2
20:31 49.2 °F 45.8 °F 30.22 in Calm   7.0 mph 88 % 0.00 in 0.00 W/m2
20:36 49.3 °F 45.9 °F 30.23 in Calm     88 % 0.08 in 0.00 W/m2
20:41 49.3 °F 45.9 °F 30.23 in Calm     88 % 0.08 in 0.00 W/m2
20:46 49.3 °F 45.9 °F 30.23 in Calm     88 % 0.06 in 0.00 W/m2
20:51 49.4 °F 46.0 °F 30.23 in Calm   9.0 mph 88 % 0.04 in 0.00 W/m2
20:56 49.3 °F 45.9 °F 30.23 in SSE 5.0 mph 8.0 mph 88 % 0.00 in 0.00 W/m2
21:01 49.4 °F 46.0 °F 30.23 in Calm     88 % 0.00 in 0.00 W/m2
21:06 49.4 °F 46.0 °F 30.23 in Calm   8.0 mph 88 % 0.00 in 0.00 W/m2
21:11 49.4 °F 46.0 °F 30.23 in Calm     88 % 0.00 in 0.00 W/m2
21:16 49.4 °F 46.0 °F 30.23 in South 9.0 mph 10.0 mph 88 % 0.00 in 0.00 W/m2
21:21 49.4 °F 46.0 °F 30.24 in Calm   6.0 mph 88 % 0.00 in 0.00 W/m2
21:26 49.4 °F 46.0 °F 30.23 in Calm     88 % 0.00 in 0.00 W/m2
21:31 49.5 °F 46.1 °F 30.24 in Calm   6.0 mph 88 % 0.00 in 0.00 W/m2
21:36 49.5 °F 46.1 °F 30.24 in Calm   6.0 mph 88 % 0.00 in 0.00 W/m2
21:41 49.5 °F 46.1 °F 30.24 in Calm   7.0 mph 88 % 0.00 in 0.00 W/m2
21:46 49.6 °F 46.2 °F 30.24 in Calm   9.0 mph 88 % 0.00 in 0.00 W/m2
21:51 49.6 °F 46.2 °F 30.23 in South 7.0 mph 8.0 mph 88 % 0.00 in 0.00 W/m2
21:56 49.6 °F 46.2 °F 30.24 in Calm   8.0 mph 88 % 0.16 in 0.00 W/m2
22:01 49.6 °F 46.2 °F 30.23 in Calm     88 % 0.08 in 0.00 W/m2
22:06 49.7 °F 46.3 °F 30.23 in South 4.0 mph 9.0 mph 88 % 0.08 in 0.00 W/m2
22:11 49.7 °F 46.3 °F 30.24 in Calm     88 % 0.05 in 0.00 W/m2
22:16 49.7 °F 46.3 °F 30.24 in SSW 7.0 mph 7.0 mph 88 % 1.56 in 0.00 W/m2
22:21 49.8 °F 46.4 °F 30.25 in SSW 3.0 mph 3.0 mph 88 % 0.24 in 0.00 W/m2
22:26 49.8 °F 46.4 °F 30.25 in Calm   8.0 mph 88 % 0.23 in 0.00 W/m2
22:31 49.9 °F 46.5 °F 30.25 in Calm   7.0 mph 88 % 0.10 in 0.00 W/m2
22:36 49.8 °F 46.4 °F 30.25 in Calm   7.0 mph 88 % 0.09 in 0.00 W/m2
22:42 49.7 °F 46.3 °F 30.25 in WSW 7.0 mph 10.0 mph 88 % 0.06 in 0.00 W/m2
22:47 49.7 °F 46.6 °F 30.25 in Calm   13.0 mph 89 % 0.04 in 0.00 W/m2
22:52 49.7 °F 46.6 °F 30.25 in Calm   10.0 mph 89 % 0.00 in 0.00 W/m2
22:57 49.7 °F 46.6 °F 30.25 in Calm   6.0 mph 89 % 0.00 in 0.00 W/m2
23:07 49.6 °F 47.4 °F 30.25 in Calm     92 % 0.00 in 0.00 W/m2
23:12 49.6 °F 46.2 °F 30.26 in Calm   6.0 mph 88 % 0.00 in 0.00 W/m2
23:17 49.6 °F 46.2 °F 30.26 in Calm   10.0 mph 88 % 0.00 in 0.00 W/m2
23:22 49.6 °F 46.2 °F 30.26 in Calm   4.0 mph 88 % 0.00 in 0.00 W/m2
23:27 49.6 °F 46.2 °F 30.26 in Calm   1.0 mph 88 % 0.09 in 0.00 W/m2
23:32 49.6 °F 46.5 °F 30.26 in Calm     89 % 0.14 in 0.00 W/m2
23:37 49.5 °F 46.4 °F 30.26 in Calm     89 % 0.19 in 0.00 W/m2
23:42 49.5 °F 46.4 °F 30.26 in Calm   10.0 mph 89 % 0.12 in 0.00 W/m2
23:52 49.5 °F 46.4 °F 30.27 in Calm   10.0 mph 89 % 0.04 in 0.00 W/m2
23:57 49.5 °F 46.4 °F 30.27 in Calm   2.0 mph 89 % 0.00 in 0.00 W/m2
Juneau County Weather
Compliments of Weather Underground - 4.5 mb
 WU-history PHP script courtesy of   Juneau County Weather.
powered by Cumulus v1.9.3 (1059)
Ambient Weather VWS v14.00
Top Contact Website Map Copyright © 2007 - 2018 Foresthillweather.com Never base important decisions on this or any weather information obtained from the Internet